Time,TemperatureF,DewpointF,PressureIn,WindDirection,WindDirectionDegrees,WindSpeedMPH,WindSpeedGustMPH,Humidity,HourlyPrecipIn,Conditions,Clouds,dailyrainin,SoftwareType,DateUTC
2013-02-14 00:00:00,32.2,28.8,29.72,South,182,0.0,0.0,87,0.00,,,0.00,Wunderground v.1.15,2013-02-14 05:00:00,
2013-02-14 00:05:00,32.3,28.9,29.72,South,182,0.0,0.0,87,0.00,,,0.00,Wunderground v.1.15,2013-02-14 05:05:00,
2013-02-14 00:10:00,32.3,28.9,29.72,South,182,0.0,0.0,87,0.00,,,0.00,Wunderground v.1.15,2013-02-14 05:10:00,
2013-02-14 00:15:00,32.3,28.9,29.72,South,182,0.0,0.0,87,0.00,,,0.00,Wunderground v.1.15,2013-02-14 05:15:00,
2013-02-14 00:20:00,32.3,28.9,29.72,South,182,0.0,0.0,87,0.00,,,0.00,Wunderground v.1.15,2013-02-14 05:20:00,
2013-02-14 00:25:00,32.4,29.0,29.72,South,182,0.0,0.0,87,0.00,,,0.00,Wunderground v.1.15,2013-02-14 05:25:00,
2013-02-14 00:30:00,32.4,29.0,29.72,South,182,0.0,0.0,87,0.00,,,0.00,Wunderground v.1.15,2013-02-14 05:30:00,
2013-02-14 00:35:00,32.4,29.0,29.72,South,182,0.0,0.0,87,0.00,,,0.00,Wunderground v.1.15,2013-02-14 05:35:00,
2013-02-14 00:40:00,32.4,28.7,29.72,South,182,0.0,0.0,86,0.00,,,0.00,Wunderground v.1.15,2013-02-14 05:40:00,
2013-02-14 00:45:00,32.4,29.0,29.72,South,182,0.0,0.0,87,0.00,,,0.00,Wunderground v.1.15,2013-02-14 05:45:00,
2013-02-14 00:50:00,32.4,29.0,29.72,South,182,0.0,0.0,87,0.00,,,0.00,Wunderground v.1.15,2013-02-14 05:50:00,
2013-02-14 01:00:00,32.5,28.8,29.72,SW,228,0.0,0.0,86,0.00,,,0.00,Wunderground v.1.15,2013-02-14 06:00:00,
2013-02-14 01:10:00,32.7,29.0,29.72,SW,228,0.0,0.0,86,0.00,,,0.00,Wunderground v.1.15,2013-02-14 06:10:00,
2013-02-14 01:15:00,32.8,29.1,29.72,SW,228,0.0,0.0,86,0.00,,,0.00,Wunderground v.1.15,2013-02-14 06:15:00,
2013-02-14 01:20:00,32.9,28.9,29.72,SW,228,0.0,0.0,85,0.00,,,0.00,Wunderground v.1.15,2013-02-14 06:20:00,
2013-02-14 01:25:00,33.0,29.0,29.72,SW,228,0.0,0.0,85,0.00,,,0.00,Wunderground v.1.15,2013-02-14 06:25:00,
2013-02-14 01:30:00,33.1,29.1,29.71,SW,228,0.0,0.0,85,0.00,,,0.00,Wunderground v.1.15,2013-02-14 06:30:00,
2013-02-14 01:40:00,33.0,29.0,29.71,SW,228,0.0,0.0,85,0.00,,,0.00,Wunderground v.1.15,2013-02-14 06:40:00,
2013-02-14 01:45:00,33.0,29.0,29.71,SW,228,0.0,0.0,85,0.00,,,0.00,Wunderground v.1.15,2013-02-14 06:45:00,
2013-02-14 01:50:00,32.8,28.8,29.71,SSW,209,0.0,0.0,85,0.00,,,0.00,Wunderground v.1.15,2013-02-14 06:50:00,
2013-02-14 01:55:00,32.8,28.8,29.71,SSW,209,0.0,1.0,85,0.00,,,0.00,Wunderground v.1.15,2013-02-14 06:55:00,
2013-02-14 02:00:00,32.7,29.0,29.71,SSW,209,0.0,0.0,86,0.00,,,0.00,Wunderground v.1.15,2013-02-14 07:00:00,
2013-02-14 02:10:00,32.5,28.8,29.71,SSW,209,0.0,0.0,86,0.00,,,0.00,Wunderground v.1.15,2013-02-14 07:10:00,
2013-02-14 02:15:00,32.5,28.8,29.71,SSW,209,0.0,0.0,86,0.00,,,0.00,Wunderground v.1.15,2013-02-14 07:15:00,
2013-02-14 02:50:00,32.0,28.3,29.71,SSW,209,0.0,0.0,86,0.00,,,0.00,Wunderground v.1.15,2013-02-14 07:50:00,
2013-02-14 02:55:00,32.0,28.3,29.71,SSW,209,0.0,0.0,86,0.00,,,0.00,Wunderground v.1.15,2013-02-14 07:55:00,
2013-02-14 03:00:00,32.0,28.3,29.71,SSW,209,0.0,0.0,86,0.00,,,0.00,Wunderground v.1.15,2013-02-14 08:00:00,
2013-02-14 03:10:00,31.9,28.2,29.71,SSW,209,0.0,0.0,86,0.00,,,0.00,Wunderground v.1.15,2013-02-14 08:10:00,
2013-02-14 03:15:00,31.8,28.1,29.71,SSW,209,0.0,0.0,86,0.00,,,0.00,Wunderground v.1.15,2013-02-14 08:15:00,
2013-02-14 03:20:00,31.7,28.0,29.71,SSW,209,0.0,0.0,86,0.00,,,0.00,Wunderground v.1.15,2013-02-14 08:20:00,
2013-02-14 03:25:00,31.6,27.9,29.71,SSW,209,0.0,0.0,86,0.00,,,0.00,Wunderground v.1.15,2013-02-14 08:25:00,
2013-02-14 03:30:00,31.5,28.1,29.71,SSW,209,0.0,0.0,87,0.00,,,0.00,Wunderground v.1.15,2013-02-14 08:30:00,
2013-02-14 03:40:00,31.4,28.0,29.71,SSW,209,0.0,0.0,87,0.00,,,0.00,Wunderground v.1.15,2013-02-14 08:40:00,
2013-02-14 03:45:00,31.3,27.9,29.71,SSW,209,0.0,0.0,87,0.00,,,0.00,Wunderground v.1.15,2013-02-14 08:45:00,
2013-02-14 03:50:00,31.2,28.1,29.71,SSW,209,0.0,1.0,88,0.00,,,0.00,Wunderground v.1.15,2013-02-14 08:50:00,
2013-02-14 03:55:00,31.2,28.1,29.70,SSW,209,0.0,1.0,88,0.00,,,0.00,Wunderground v.1.15,2013-02-14 08:55:00,
2013-02-14 04:00:00,31.2,28.1,29.71,SSW,209,0.0,0.0,88,0.00,,,0.00,Wunderground v.1.15,2013-02-14 09:00:00,
2013-02-14 04:10:00,31.2,28.1,29.71,SSW,209,0.0,0.0,88,0.00,,,0.00,Wunderground v.1.15,2013-02-14 09:10:00,
2013-02-14 04:15:00,31.4,28.3,29.71,SSW,209,0.0,0.0,88,0.00,,,0.00,Wunderground v.1.15,2013-02-14 09:15:00,
2013-02-14 04:20:00,31.5,28.4,29.71,WSW,239,0.0,5.0,88,0.00,,,0.00,Wunderground v.1.15,2013-02-14 09:20:00,
2013-02-14 04:25:00,31.8,28.7,29.71,SW,219,1.0,5.0,88,0.00,,,0.00,Wunderground v.1.15,2013-02-14 09:25:00,
2013-02-14 04:30:00,32.0,28.6,29.71,SW,219,0.0,2.0,87,0.00,,,0.00,Wunderground v.1.15,2013-02-14 09:30:00,
2013-02-14 04:35:00,32.1,28.7,29.70,SW,216,1.0,2.0,87,0.00,,,0.00,Wunderground v.1.15,2013-02-14 09:35:00,
2013-02-14 04:40:00,32.2,28.8,29.70,SW,216,1.0,1.0,87,0.00,,,0.00,Wunderground v.1.15,2013-02-14 09:40:00,
2013-02-14 04:50:00,32.1,28.7,29.70,SW,216,0.0,0.0,87,0.00,,,0.00,Wunderground v.1.15,2013-02-14 09:50:00,
2013-02-14 04:55:00,32.0,28.6,29.70,SW,216,0.0,0.0,87,0.00,,,0.00,Wunderground v.1.15,2013-02-14 09:55:00,
2013-02-14 05:00:00,31.9,28.8,29.70,SW,216,0.0,0.0,88,0.00,,,0.00,Wunderground v.1.15,2013-02-14 10:00:00,
2013-02-14 05:10:00,32.0,28.8,29.70,SW,216,0.0,0.0,88,0.00,,,0.00,Wunderground v.1.15,2013-02-14 10:10:00,
2013-02-14 05:15:00,32.0,28.8,29.70,SW,216,0.0,0.0,88,0.00,,,0.00,Wunderground v.1.15,2013-02-14 10:15:00,
2013-02-14 05:25:00,32.1,28.9,29.70,SW,216,0.0,0.0,88,0.00,,,0.00,Wunderground v.1.15,2013-02-14 10:25:00,
2013-02-14 05:30:00,32.0,28.8,29.70,SW,216,0.0,0.0,88,0.00,,,0.00,Wunderground v.1.15,2013-02-14 10:30:00,
2013-02-14 05:35:00,31.9,28.8,29.70,SW,216,0.0,1.0,88,0.00,,,0.00,Wunderground v.1.15,2013-02-14 10:35:00,
2013-02-14 05:40:00,31.8,28.9,29.70,SW,216,0.0,0.0,89,0.00,,,0.00,Wunderground v.1.15,2013-02-14 10:40:00,
2013-02-14 05:45:00,31.7,28.8,29.70,SW,216,0.0,0.0,89,0.00,,,0.00,Wunderground v.1.15,2013-02-14 10:45:00,
2013-02-14 05:55:00,31.6,29.0,29.70,SSW,210,0.0,0.0,90,0.00,,,0.00,Wunderground v.1.15,2013-02-14 10:55:00,
2013-02-14 06:00:00,31.6,29.0,29.70,SSW,210,0.0,0.0,90,0.00,,,0.00,Wunderground v.1.15,2013-02-14 11:00:00,
2013-02-14 06:10:00,31.6,29.0,29.70,SSW,205,0.0,0.0,90,0.00,,,0.00,Wunderground v.1.15,2013-02-14 11:10:00,
2013-02-14 06:15:00,31.5,28.9,29.70,SSW,205,0.0,0.0,90,0.00,,,0.00,Wunderground v.1.15,2013-02-14 11:15:00,
2013-02-14 06:20:00,31.5,28.9,29.70,SSW,205,0.0,0.0,90,0.00,,,0.00,Wunderground v.1.15,2013-02-14 11:20:00,
2013-02-14 07:35:00,31.7,29.4,29.70,ESE,116,0.0,3.0,91,0.00,,,0.00,Wunderground v.1.15,2013-02-14 12:35:00,
2013-02-14 07:40:00,31.7,29.4,29.70,ESE,116,0.0,3.0,91,0.00,,,0.00,Wunderground v.1.15,2013-02-14 12:40:00,
2013-02-14 07:45:00,31.7,29.4,29.70,ESE,116,0.0,3.0,91,0.00,,,0.00,Wunderground v.1.15,2013-02-14 12:45:00,
2013-02-14 07:50:00,31.6,29.3,29.70,ESE,116,0.0,3.0,91,0.00,,,0.00,Wunderground v.1.15,2013-02-14 12:50:00,
2013-02-14 07:55:00,31.6,29.3,29.70,ESE,116,0.0,3.0,91,0.00,,,0.00,Wunderground v.1.15,2013-02-14 12:55:00,
2013-02-14 08:00:00,31.7,29.4,29.70,ESE,116,0.0,0.0,91,0.00,,,0.00,Wunderground v.1.15,2013-02-14 13:00:00,
2013-02-14 08:10:00,31.7,29.4,29.70,ESE,116,0.0,0.0,91,0.00,,,0.00,Wunderground v.1.15,2013-02-14 13:10:00,
2013-02-14 08:15:00,31.8,29.7,29.69,ESE,116,0.0,0.0,92,0.00,,,0.00,Wunderground v.1.15,2013-02-14 13:15:00,
2013-02-14 08:20:00,31.9,29.6,29.70,ESE,116,0.0,0.0,91,0.00,,,0.00,Wunderground v.1.15,2013-02-14 13:20:00,
2013-02-14 08:25:00,32.0,29.7,29.70,ESE,116,0.0,0.0,91,0.00,,,0.00,Wunderground v.1.15,2013-02-14 13:25:00,
2013-02-14 08:35:00,32.3,30.0,29.70,ESE,116,1.0,1.0,91,0.00,,,0.00,Wunderground v.1.15,2013-02-14 13:35:00,
2013-02-14 08:40:00,32.3,30.0,29.70,ESE,116,0.0,0.0,91,0.00,,,0.00,Wunderground v.1.15,2013-02-14 13:40:00,
2013-02-14 08:45:00,32.4,30.1,29.70,ESE,117,0.0,1.0,91,0.00,,,0.00,Wunderground v.1.15,2013-02-14 13:45:00,
2013-02-14 08:50:00,32.5,30.2,29.70,ESE,117,0.0,2.0,91,0.00,,,0.00,Wunderground v.1.15,2013-02-14 13:50:00,
2013-02-14 08:55:00,32.6,30.3,29.70,SE,136,1.0,2.0,91,0.00,,,0.00,Wunderground v.1.15,2013-02-14 13:55:00,
2013-02-14 09:00:00,32.8,30.5,29.70,ENE,71,1.0,3.0,91,0.00,,,0.00,Wunderground v.1.15,2013-02-14 14:00:00,
2013-02-14 09:10:00,33.0,30.4,29.70,SSE,153,1.0,1.0,90,0.00,,,0.00,Wunderground v.1.15,2013-02-14 14:10:00,
2013-02-14 09:15:00,33.1,30.8,29.70,SSE,151,1.0,3.0,91,0.00,,,0.00,Wunderground v.1.15,2013-02-14 14:15:00,
2013-02-14 09:20:00,33.2,30.9,29.70,SSE,151,0.0,0.0,91,0.00,,,0.00,Wunderground v.1.15,2013-02-14 14:20:00,
2013-02-14 09:25:00,33.2,30.9,29.70,ESE,103,0.0,0.0,91,0.00,,,0.00,Wunderground v.1.15,2013-02-14 14:25:00,
2013-02-14 09:30:00,33.2,30.9,29.70,South,187,1.0,1.0,91,0.00,,,0.00,Wunderground v.1.15,2013-02-14 14:30:00,
2013-02-14 09:35:00,33.2,31.1,29.70,SE,132,1.0,3.0,92,0.00,,,0.00,Wunderground v.1.15,2013-02-14 14:35:00,
2013-02-14 09:45:00,33.1,31.3,29.69,SE,144,1.0,1.0,93,0.00,,,0.00,Wunderground v.1.15,2013-02-14 14:45:00,
2013-02-14 09:50:00,33.1,31.3,29.69,SE,142,1.0,1.0,93,0.00,,,0.00,Wunderground v.1.15,2013-02-14 14:50:00,
2013-02-14 09:55:00,33.1,31.3,29.69,SE,137,1.0,1.0,93,0.00,,,0.00,Wunderground v.1.15,2013-02-14 14:55:00,
2013-02-14 10:00:00,33.1,31.6,29.68,SE,145,1.0,1.0,94,0.00,,,0.00,Wunderground v.1.15,2013-02-14 15:00:00,
2013-02-14 10:10:00,33.2,31.7,29.68,SE,134,1.0,1.0,94,0.00,,,0.00,Wunderground v.1.15,2013-02-14 15:10:00,
2013-02-14 10:20:00,33.3,31.8,29.67,SE,126,1.0,1.0,94,0.00,,,0.00,Wunderground v.1.15,2013-02-14 15:20:00,
2013-02-14 10:25:00,33.4,31.9,29.67,SE,136,1.0,2.0,94,0.00,,,0.00,Wunderground v.1.15,2013-02-14 15:25:00,
2013-02-14 10:30:00,33.4,32.1,29.66,ESE,109,1.0,1.0,95,0.00,,,0.01,Wunderground v.1.15,2013-02-14 15:30:00,
2013-02-14 10:35:00,33.5,32.2,29.66,ESE,123,2.0,4.0,95,0.00,,,0.01,Wunderground v.1.15,2013-02-14 15:35:00,
2013-02-14 10:40:00,33.7,32.4,29.65,East,79,3.0,5.0,95,0.00,,,0.01,Wunderground v.1.15,2013-02-14 15:40:00,
2013-02-14 10:45:00,33.9,32.6,29.65,SE,137,2.0,5.0,95,0.04,,,0.02,Wunderground v.1.15,2013-02-14 15:45:00,
2013-02-14 10:50:00,34.1,32.8,29.65,SE,141,2.0,2.0,95,0.04,,,0.02,Wunderground v.1.15,2013-02-14 15:50:00,
2013-02-14 10:55:00,34.3,33.0,29.65,ESE,112,2.0,5.0,95,0.05,,,0.03,Wunderground v.1.15,2013-02-14 15:55:00,
2013-02-14 11:00:00,34.6,33.3,29.65,ESE,121,2.0,2.0,95,0.05,,,0.03,Wunderground v.1.15,2013-02-14 16:00:00,
2013-02-14 11:10:00,35.0,33.7,29.64,ESE,107,2.0,2.0,95,0.04,,,0.03,Wunderground v.1.15,2013-02-14 16:10:00,
2013-02-14 11:20:00,35.1,33.5,29.63,SE,124,2.0,3.0,94,0.00,,,0.03,Wunderground v.1.15,2013-02-14 16:20:00,
2013-02-14 11:25:00,35.2,33.6,29.63,ESE,103,3.0,7.0,94,0.00,,,0.03,Wunderground v.1.15,2013-02-14 16:25:00,
2013-02-14 11:30:00,35.3,33.7,29.63,SE,138,3.0,4.0,94,0.00,,,0.03,Wunderground v.1.15,2013-02-14 16:30:00,
2013-02-14 11:35:00,35.4,33.8,29.63,ESE,119,3.0,4.0,94,0.00,,,0.03,Wunderground v.1.15,2013-02-14 16:35:00,
2013-02-14 11:40:00,35.5,33.9,29.63,East,98,2.0,5.0,94,0.00,,,0.03,Wunderground v.1.15,2013-02-14 16:40:00,
2013-02-14 11:45:00,35.5,33.9,29.63,East,101,3.0,5.0,94,0.00,,,0.03,Wunderground v.1.15,2013-02-14 16:45:00,
2013-02-14 11:55:00,36.1,34.3,29.63,SSW,200,2.0,2.0,93,0.00,,,0.03,Wunderground v.1.15,2013-02-14 16:55:00,
2013-02-14 12:00:00,36.4,34.6,29.63,South,186,2.0,2.0,93,0.00,,,0.03,Wunderground v.1.15,2013-02-14 17:00:00,
2013-02-14 12:10:00,36.8,34.4,29.62,South,188,3.0,3.0,91,0.00,,,0.03,Wunderground v.1.15,2013-02-14 17:10:00,
2013-02-14 12:15:00,37.2,34.8,29.62,South,190,4.0,4.0,91,0.00,,,0.03,Wunderground v.1.15,2013-02-14 17:15:00,
2013-02-14 12:20:00,37.9,35.2,29.62,SE,140,3.0,3.0,90,0.00,,,0.03,Wunderground v.1.15,2013-02-14 17:20:00,
2013-02-14 12:25:00,38.6,35.4,29.62,SSE,159,3.0,5.0,88,0.00,,,0.03,Wunderground v.1.15,2013-02-14 17:25:00,
2013-02-14 12:30:00,38.6,35.1,29.62,SE,134,3.0,3.0,87,0.00,,,0.03,Wunderground v.1.15,2013-02-14 17:30:00,
2013-02-14 13:35:00,39.9,35.2,29.60,West,274,2.0,10.0,83,0.00,,,0.03,Wunderground v.1.15,2013-02-14 18:35:00,
2013-02-14 13:40:00,40.2,35.4,29.60,SE,141,2.0,10.0,83,0.00,,,0.03,Wunderground v.1.15,2013-02-14 18:40:00,
2013-02-14 13:45:00,40.6,34.9,29.60,SW,227,4.0,10.0,80,0.00,,,0.03,Wunderground v.1.15,2013-02-14 18:45:00,
2013-02-14 13:50:00,40.8,34.8,29.60,SW,232,5.0,5.0,79,0.00,,,0.03,Wunderground v.1.15,2013-02-14 18:50:00,
2013-02-14 13:55:00,40.9,34.9,29.60,SW,230,4.0,10.0,79,0.00,,,0.03,Wunderground v.1.15,2013-02-14 18:55:00,
2013-02-14 14:00:00,41.0,35.0,29.60,West,261,3.0,3.0,79,0.00,,,0.03,Wunderground v.1.15,2013-02-14 19:00:00,
2013-02-14 14:10:00,41.1,34.8,29.59,SSW,213,4.0,5.0,78,0.00,,,0.03,Wunderground v.1.15,2013-02-14 19:10:00,
2013-02-14 14:15:00,41.4,35.1,29.59,WSW,244,3.0,5.0,78,0.00,,,0.03,Wunderground v.1.15,2013-02-14 19:15:00,
2013-02-14 14:20:00,41.4,35.1,29.59,SW,234,4.0,5.0,78,0.00,,,0.03,Wunderground v.1.15,2013-02-14 19:20:00,
2013-02-14 14:25:00,41.2,34.9,29.59,SW,222,4.0,5.0,78,0.00,,,0.03,Wunderground v.1.15,2013-02-14 19:25:00,
2013-02-14 14:30:00,41.0,34.7,29.59,South,187,4.0,4.0,78,0.00,,,0.03,Wunderground v.1.15,2013-02-14 19:30:00,
2013-02-14 14:35:00,40.8,34.8,29.59,WSW,249,4.0,4.0,79,0.00,,,0.03,Wunderground v.1.15,2013-02-14 19:35:00,
2013-02-14 14:45:00,40.5,34.5,29.60,SW,232,4.0,5.0,79,0.00,,,0.03,Wunderground v.1.15,2013-02-14 19:45:00,
2013-02-14 14:55:00,40.3,34.6,29.59,South,174,3.0,6.0,80,0.00,,,0.03,Wunderground v.1.15,2013-02-14 19:55:00,
2013-02-14 15:00:00,40.4,34.7,29.60,SSW,196,3.0,3.0,80,0.00,,,0.03,Wunderground v.1.15,2013-02-14 20:00:00,
2013-02-14 15:10:00,40.3,34.6,29.60,SW,229,4.0,6.0,80,0.00,,,0.03,Wunderground v.1.15,2013-02-14 20:10:00,
2013-02-14 15:20:00,40.1,34.4,29.60,WSW,246,4.0,4.0,80,0.00,,,0.03,Wunderground v.1.15,2013-02-14 20:20:00,
2013-02-14 15:25:00,40.0,34.3,29.60,SSW,203,3.0,4.0,80,0.00,,,0.03,Wunderground v.1.15,2013-02-14 20:25:00,
2013-02-14 15:30:00,39.8,34.4,29.60,SSW,193,4.0,4.0,81,0.00,,,0.03,Wunderground v.1.15,2013-02-14 20:30:00,
2013-02-14 16:45:00,38.7,34.3,29.60,WSW,247,5.0,5.0,84,0.00,,,0.03,Wunderground v.1.15,2013-02-14 21:45:00,
2013-02-14 16:50:00,38.5,34.1,29.61,South,186,5.0,9.0,84,0.00,,,0.03,Wunderground v.1.15,2013-02-14 21:50:00,
2013-02-14 16:55:00,38.3,34.2,29.61,SSW,202,5.0,5.0,85,0.00,,,0.03,Wunderground v.1.15,2013-02-14 21:55:00,
2013-02-14 17:00:00,38.2,34.1,29.61,SW,234,5.0,8.0,85,0.00,,,0.03,Wunderground v.1.15,2013-02-14 22:00:00,
2013-02-14 17:10:00,38.0,34.2,29.61,West,261,5.0,5.0,86,0.00,,,0.03,Wunderground v.1.15,2013-02-14 22:10:00,
2013-02-14 17:15:00,37.9,34.1,29.61,SSW,197,4.0,5.0,86,0.00,,,0.03,Wunderground v.1.15,2013-02-14 22:15:00,
2013-02-14 17:20:00,37.9,34.1,29.61,SSW,193,5.0,5.0,86,0.00,,,0.03,Wunderground v.1.15,2013-02-14 22:20:00,
2013-02-14 17:25:00,37.7,34.2,29.61,SW,218,5.0,6.0,87,0.00,,,0.03,Wunderground v.1.15,2013-02-14 22:25:00,
2013-02-14 17:30:00,37.5,34.0,29.61,South,175,6.0,7.0,87,0.00,,,0.03,Wunderground v.1.15,2013-02-14 22:30:00,
2013-02-14 17:35:00,37.3,34.1,29.61,WSW,250,6.0,9.0,88,0.00,,,0.03,Wunderground v.1.15,2013-02-14 22:35:00,
2013-02-14 17:45:00,37.1,33.9,29.61,West,265,6.0,7.0,88,0.00,,,0.03,Wunderground v.1.15,2013-02-14 22:45:00,
2013-02-14 17:50:00,37.0,34.1,29.61,West,265,6.0,8.0,89,0.00,,,0.03,Wunderground v.1.15,2013-02-14 22:50:00,
2013-02-14 17:55:00,36.9,34.0,29.62,SW,229,6.0,8.0,89,0.00,,,0.03,Wunderground v.1.15,2013-02-14 22:55:00,
2013-02-14 18:00:00,36.8,33.9,29.62,West,265,6.0,10.0,89,0.00,,,0.03,Wunderground v.1.15,2013-02-14 23:00:00,
2013-02-14 18:10:00,36.7,33.8,29.62,West,268,6.0,8.0,89,0.00,,,0.04,Wunderground v.1.15,2013-02-14 23:10:00,
2013-02-14 18:20:00,36.6,33.7,29.63,WSW,241,6.0,7.0,89,0.00,,,0.04,Wunderground v.1.15,2013-02-14 23:20:00,
2013-02-14 18:25:00,36.6,33.7,29.62,WSW,244,6.0,9.0,89,0.00,,,0.04,Wunderground v.1.15,2013-02-14 23:25:00,
2013-02-14 18:30:00,36.6,33.7,29.63,SW,216,7.0,7.0,89,0.00,,,0.04,Wunderground v.1.15,2013-02-14 23:30:00,
2013-02-14 18:35:00,36.4,33.7,29.63,WSW,246,6.0,9.0,90,0.00,,,0.04,Wunderground v.1.15,2013-02-14 23:35:00,
2013-02-14 18:40:00,36.3,33.6,29.63,WSW,253,5.0,5.0,90,0.00,,,0.04,Wunderground v.1.15,2013-02-14 23:40:00,
2013-02-14 18:50:00,36.1,33.5,29.64,SW,232,7.0,7.0,90,0.00,,,0.04,Wunderground v.1.15,2013-02-14 23:50:00,
2013-02-14 18:55:00,36.0,33.6,29.64,WSW,254,8.0,8.0,91,0.00,,,0.04,Wunderground v.1.15,2013-02-14 23:55:00,
2013-02-14 19:00:00,35.8,33.4,29.64,SW,236,7.0,7.0,91,0.00,,,0.04,Wunderground v.1.15,2013-02-15 00:00:00,
2013-02-14 19:10:00,35.6,33.5,29.64,WSW,255,7.0,7.0,92,0.00,,,0.04,Wunderground v.1.15,2013-02-15 00:10:00,
2013-02-14 19:15:00,35.4,33.3,29.64,WSW,240,7.0,7.0,92,0.00,,,0.04,Wunderground v.1.15,2013-02-15 00:15:00,
2013-02-14 19:25:00,35.6,33.5,29.64,West,265,8.0,9.0,92,0.00,,,0.04,Wunderground v.1.15,2013-02-15 00:25:00,
2013-02-14 19:30:00,35.7,33.6,29.64,WSW,250,9.0,9.0,92,0.00,,,0.04,Wunderground v.1.15,2013-02-15 00:30:00,
2013-02-14 19:35:00,35.7,33.6,29.65,WSW,255,9.0,10.0,92,0.00,,,0.05,Wunderground v.1.15,2013-02-15 00:35:00,
2013-02-14 19:40:00,35.7,33.3,29.65,West,261,9.0,10.0,91,0.00,,,0.05,Wunderground v.1.15,2013-02-15 00:40:00,
2013-02-14 19:50:00,35.7,33.3,29.65,WSW,238,8.0,12.0,91,0.00,,,0.05,Wunderground v.1.15,2013-02-15 00:50:00,
2013-02-14 20:00:00,35.5,33.4,29.65,WSW,255,9.0,9.0,92,0.00,,,0.05,Wunderground v.1.15,2013-02-15 01:00:00,
2013-02-14 20:10:00,35.2,33.1,29.66,West,279,8.0,8.0,92,0.00,,,0.05,Wunderground v.1.15,2013-02-15 01:10:00,
2013-02-14 20:15:00,35.1,33.0,29.66,West,266,8.0,8.0,92,0.00,,,0.05,Wunderground v.1.15,2013-02-15 01:15:00,
2013-02-14 20:20:00,34.9,33.1,29.66,West,267,8.0,8.0,93,0.00,,,0.05,Wunderground v.1.15,2013-02-15 01:20:00,
2013-02-14 20:25:00,34.8,33.0,29.66,West,277,8.0,8.0,93,0.00,,,0.05,Wunderground v.1.15,2013-02-15 01:25:00,
2013-02-14 20:35:00,34.6,32.8,29.66,West,268,8.0,8.0,93,0.00,,,0.05,Wunderground v.1.15,2013-02-15 01:35:00,
2013-02-14 20:40:00,34.4,32.9,29.66,WSW,257,8.0,8.0,94,0.00,,,0.05,Wunderground v.1.15,2013-02-15 01:40:00,
2013-02-14 20:45:00,34.4,32.9,29.67,West,277,8.0,8.0,94,0.00,,,0.05,Wunderground v.1.15,2013-02-15 01:45:00,
2013-02-14 20:50:00,34.4,32.9,29.67,West,265,8.0,9.0,94,0.00,,,0.05,Wunderground v.1.15,2013-02-15 01:50:00,
2013-02-14 20:55:00,34.3,32.8,29.67,WSW,254,7.0,10.0,94,0.00,,,0.05,Wunderground v.1.15,2013-02-15 01:55:00,
2013-02-14 21:00:00,34.4,32.9,29.67,SW,215,7.0,7.0,94,0.00,,,0.05,Wunderground v.1.15,2013-02-15 02:00:00,
2013-02-14 21:10:00,34.3,32.8,29.68,WNW,286,8.0,11.0,94,0.00,,,0.05,Wunderground v.1.15,2013-02-15 02:10:00,
2013-02-14 21:15:00,34.2,32.7,29.69,WNW,289,9.0,11.0,94,0.00,,,0.05,Wunderground v.1.15,2013-02-15 02:15:00,
2013-02-14 21:20:00,34.2,32.7,29.69,WNW,289,9.0,12.0,94,0.00,,,0.06,Wunderground v.1.15,2013-02-15 02:20:00,
2013-02-14 21:25:00,34.2,32.7,29.69,WNW,288,10.0,12.0,94,0.00,,,0.06,Wunderground v.1.15,2013-02-15 02:25:00,
2013-02-14 21:30:00,34.3,32.5,29.70,West,261,10.0,12.0,93,0.00,,,0.06,Wunderground v.1.15,2013-02-15 02:30:00,
2013-02-14 21:40:00,33.9,32.1,29.71,West,275,9.0,11.0,93,0.00,,,0.06,Wunderground v.1.15,2013-02-15 02:40:00,
2013-02-14 21:45:00,33.7,32.2,29.72,WNW,290,9.0,11.0,94,0.00,,,0.06,Wunderground v.1.15,2013-02-15 02:45:00,
2013-02-14 21:50:00,33.5,32.0,29.72,WNW,300,9.0,12.0,94,0.00,,,0.06,Wunderground v.1.15,2013-02-15 02:50:00,
2013-02-14 21:55:00,33.4,31.6,29.72,West,270,10.0,12.0,93,0.00,,,0.06,Wunderground v.1.15,2013-02-15 02:55:00,
2013-02-14 22:00:00,33.1,31.0,29.73,North,351,11.0,11.0,92,0.00,,,0.06,Wunderground v.1.15,2013-02-15 03:00:00,
2013-02-14 22:10:00,32.6,30.3,29.74,WSW,257,11.0,11.0,91,0.00,,,0.06,Wunderground v.1.15,2013-02-15 03:10:00,
2013-02-14 22:15:00,32.4,30.3,29.74,West,279,9.0,11.0,92,0.00,,,0.06,Wunderground v.1.15,2013-02-15 03:15:00,
2013-02-14 22:20:00,32.3,30.5,29.75,WNW,284,8.0,8.0,93,0.00,,,0.06,Wunderground v.1.15,2013-02-15 03:20:00,
2013-02-14 22:25:00,32.3,30.5,29.75,West,271,7.0,12.0,93,0.00,,,0.06,Wunderground v.1.15,2013-02-15 03:25:00,
2013-02-14 22:30:00,32.1,30.3,29.75,WNW,292,9.0,9.0,93,0.00,,,0.06,Wunderground v.1.15,2013-02-15 03:30:00,
2013-02-14 22:35:00,31.9,29.6,29.76,WNW,290,10.0,13.0,91,0.00,,,0.06,Wunderground v.1.15,2013-02-15 03:35:00,
2013-02-14 22:45:00,31.7,28.6,29.77,WNW,283,12.0,17.0,88,0.00,,,0.06,Wunderground v.1.15,2013-02-15 03:45:00,
2013-02-14 22:50:00,31.4,28.3,29.77,NW,304,12.0,12.0,88,0.00,,,0.06,Wunderground v.1.15,2013-02-15 03:50:00,
2013-02-14 22:55:00,31.0,27.6,29.77,WNW,300,11.0,15.0,87,0.00,,,0.06,Wunderground v.1.15,2013-02-15 03:55:00,
2013-02-14 23:00:00,30.9,27.2,29.78,West,281,11.0,11.0,86,0.00,,,0.06,Wunderground v.1.15,2013-02-15 04:00:00,
2013-02-14 23:10:00,30.9,26.6,29.78,West,275,9.0,9.0,84,0.00,,,0.06,Wunderground v.1.15,2013-02-15 04:10:00,
2013-02-14 23:20:00,30.9,27.2,29.79,West,265,6.0,12.0,86,0.00,,,0.06,Wunderground v.1.15,2013-02-15 04:20:00,
2013-02-14 23:25:00,30.7,26.7,29.80,WNW,283,8.0,12.0,85,0.00,,,0.06,Wunderground v.1.15,2013-02-15 04:25:00,
2013-02-14 23:30:00,30.6,26.3,29.80,WNW,282,9.0,10.0,84,0.00,,,0.06,Wunderground v.1.15,2013-02-15 04:30:00,
2013-02-14 23:35:00,30.5,26.0,29.80,West,279,10.0,10.0,83,0.00,,,0.06,Wunderground v.1.15,2013-02-15 04:35:00,
2013-02-14 23:40:00,30.4,25.6,29.80,West,271,10.0,10.0,82,0.00,,,0.06,Wunderground v.1.15,2013-02-15 04:40:00,
2013-02-14 23:45:00,30.3,25.5,29.81,WNW,292,10.0,10.0,82,0.00,,,0.06,Wunderground v.1.15,2013-02-15 04:45:00,
2013-02-14 23:55:00,30.2,25.4,29.81,WNW,289,7.0,9.0,82,0.00,,,0.06,Wunderground v.1.15,2013-02-15 04:55:00,